Getzville, New York
Current Conditions -  °F | °C
As of 9:54 AM on Wednesday 26 Nov 2014 (Local Time) from KBUF Reporting Station
Overcast Overcast  
Wind Chill: 26°   Ceiling: 3300
Heat Index: 33°   Visibility: 10mi
Dew Point: 23°   Wind: 8mph
Humidity: 66%   Direction: 40°NE
Pressure: 30.14"   Gusts: NA
Location:  43.02°N, 78.77°W
Report Text: KBUF 261454Z 04007KT 10SM BKN033 BKN090 OVC180 01/M05 A3014 RMK AO2 SLP216 T00061050 58004
Loading
Personal Weather Stations






























Interactive Weather Map New forecast layout! Learn more

10-Day Weather Forecast

Advertisements
Track Severe Weather on mobile